Time;durP1;ratioP1;P1;durP2;ratioP2;P2;SDS_P1;SDS_P2;PMS_P1;PMS_P2;Temp;Humidity;BMP_temperature;BMP_pressure;BME280_temperature;BME280_humidity;BME280_pressure;Samples;Min_cycle;Max_cycle;Signal;HPM_P1;HPM_P2
2022/08/03 00:01:58;;;;;;;4.60;2.40;;;21.50;57.90;;;17.83;78.78;95587.25;4950318;28;20092;-43
2022/08/03 00:04:24;;;;;;;3.42;2.75;;;21.50;57.80;;;17.79;78.73;95581.69;4951545;28;20022;-46
2022/08/03 00:06:59;;;;;;;3.65;2.83;;;21.50;57.90;;;17.73;79.27;95591.75;4952081;28;20038;-44
2022/08/03 00:09:30;;;;;;;4.80;2.90;;;21.40;58.20;;;17.72;78.96;95590.19;4967099;28;20034;-44
2022/08/03 00:11:56;;;;;;;2.95;2.65;;;21.40;58.30;;;17.71;78.89;95595.88;4918724;29;20397;-44
2022/08/03 00:14:21;;;;;;;3.78;2.90;;;21.40;58.20;;;17.68;78.69;95594.59;4950415;28;20613;-46
2022/08/03 00:16:57;;;;;;;2.88;2.45;;;21.40;58.90;;;17.63;79.59;95588.53;4966342;28;20022;-44
2022/08/03 00:19:23;;;;;;;4.32;3.30;;;21.30;58.60;;;17.61;80.01;95590.75;4934510;29;20497;-47
2022/08/03 00:21:52;;;;;;;3.75;3.42;;;21.30;58.50;;;17.58;79.79;95590.28;4965820;28;20141;-48
2022/08/03 00:24:30;;;;;;;4.95;2.95;;;21.30;58.70;;;17.59;79.50;95580.28;4950641;28;20025;-45
2022/08/03 00:26:56;;;;;;;3.35;3.03;;;21.30;58.90;;;17.58;79.45;95581.41;4950189;29;20045;-46
2022/08/03 00:29:22;;;;;;;3.72;3.10;;;21.20;58.70;;;17.56;79.35;95586.31;4950561;29;20389;-43
2022/08/03 00:32:17;;;;;;;3.58;3.10;;;21.20;58.80;;;17.50;79.84;95588.31;4949605;29;20030;-46
2022/08/03 00:34:43;;;;;;;6.30;3.03;;;21.20;59.70;;;17.49;79.86;95583.25;4950432;28;20026;-46
2022/08/03 00:37:12;;;;;;;3.28;2.85;;;21.20;58.90;;;17.46;79.60;95576.59;4950773;29;20443;-46
2022/08/03 00:39:42;;;;;;;3.20;2.60;;;21.20;59.10;;;17.46;79.08;95575.78;4951841;28;20432;-46
2022/08/03 00:42:08;;;;;;;4.40;3.20;;;21.10;58.90;;;17.46;79.18;95586.56;4949585;29;20029;-45
2022/08/03 00:44:46;;;;;;;4.32;2.83;;;21.20;59.00;;;17.44;78.79;95584.16;4934558;29;20097;-45
2022/08/03 00:47:21;;;;;;;2.90;2.60;;;21.10;59.20;;;17.41;79.00;95582.09;4950262;29;20022;-46
2022/08/03 00:49:56;;;;;;;5.53;2.83;;;21.10;59.20;;;17.41;79.00;95579.41;4950696;29;20034;-44
2022/08/03 00:52:22;;;;;;;3.40;3.10;;;21.10;59.10;;;17.38;79.29;95579.22;4949173;28;20071;-44
2022/08/03 00:54:49;;;;;;;3.75;2.75;;;21.10;59.10;;;17.34;79.76;95571.75;4951711;28;20049;-45
2022/08/03 00:57:21;;;;;;;3.70;3.03;;;21.10;59.20;;;17.30;79.65;95575.38;4950330;29;20564;-44
2022/08/03 00:59:47;;;;;;;4.70;3.28;;;21.10;59.40;;;17.23;80.19;95577.69;4950632;29;20433;-44
2022/08/03 01:02:13;;;;;;;4.50;2.67;;;21.00;59.10;;;17.17;80.30;95571.63;4950785;28;20035;-47
2022/08/03 01:04:42;;;;;;;4.32;2.70;;;21.00;59.30;;;17.14;80.49;95572.25;4918432;29;20023;-47
2022/08/03 01:07:32;;;;;;;4.80;2.95;;;20.90;59.50;;;17.10;80.75;95574.75;4951447;28;20058;-45
2022/08/03 01:10:52;;;;;;;4.47;2.67;;;20.90;59.70;;;17.07;80.66;95569.97;4950704;29;20630;-44
2022/08/03 01:13:43;;;;;;;4.90;3.20;;;20.90;59.60;;;17.08;80.65;95573.50;4965344;28;20113;-44
2022/08/03 01:16:30;;;;;;;3.53;2.90;;;20.90;59.70;;;17.02;80.36;95572.03;4951043;28;20093;-43
2022/08/03 01:19:10;;;;;;;4.72;3.33;;;20.80;59.70;;;16.98;80.31;95576.41;4955607;28;20026;-45
2022/08/03 01:22:32;;;;;;;4.00;2.47;;;20.80;59.60;;;16.96;80.53;95578.63;4949436;29;20042;-43
2022/08/03 01:25:53;;;;;;;5.88;2.88;;;20.70;59.70;;;16.93;80.93;95574.63;4951521;29;20030;-44
2022/08/03 01:29:07;;;;;;;5.25;3.10;;;20.70;59.90;;;16.90;80.81;95577.16;4954565;28;20121;-45
2022/08/03 01:32:01;;;;;;;3.75;2.65;;;20.70;59.90;;;16.86;80.44;95568.91;4954333;28;20033;-45
2022/08/03 01:34:51;;;;;;;5.60;2.72;;;20.60;59.90;;;16.85;80.57;95575.34;4954580;28;20030;-44
2022/08/03 01:37:40;;;;;;;5.13;2.80;;;20.60;60.00;;;16.80;81.00;95578.19;4953634;28;20034;-46
2022/08/03 01:40:10;;;;;;;7.13;2.70;;;20.60;60.00;;;16.76;81.57;95572.59;4953433;28;20517;-47
2022/08/03 01:42:40;;;;;;;2.83;2.00;;;20.60;60.00;;;16.74;81.17;95572.09;4952222;28;20617;-46
2022/08/03 01:45:13;;;;;;;3.33;2.65;;;20.60;60.10;;;16.73;81.08;95575.06;4953200;28;20481;-45
2022/08/03 01:47:48;;;;;;;3.33;2.42;;;20.50;60.20;;;16.70;81.24;95576.47;4953482;28;20026;-45
2022/08/03 01:50:23;;;;;;;3.42;2.80;;;20.50;60.30;;;16.68;81.28;95578.69;4952984;28;20463;-45
2022/08/03 01:52:53;;;;;;;3.17;2.65;;;20.50;60.40;;;16.66;81.76;95572.78;4953693;28;20039;-44
2022/08/03 01:55:23;;;;;;;3.40;2.83;;;20.50;60.40;;;16.61;81.65;95572.94;4953117;28;20033;-44
2022/08/03 01:57:54;;;;;;;3.67;2.78;;;20.40;60.40;;;16.56;81.82;95562.28;4953395;28;20489;-45
2022/08/03 02:00:21;;;;;;;4.43;2.95;;;20.40;60.50;;;16.52;82.06;95567.47;4952774;28;20393;-44
2022/08/03 02:02:51;;;;;;;3.30;2.63;;;20.40;60.50;;;16.46;82.35;95563.28;4937072;28;20548;-44
2022/08/03 02:05:20;;;;;;;3.47;2.67;;;20.30;60.70;;;16.41;82.46;95564.19;4952801;28;20027;-43
2022/08/03 02:07:55;;;;;;;4.63;2.90;;;20.30;60.80;;;16.38;82.63;95564.00;4953101;28;20030;-43
2022/08/03 02:10:26;;;;;;;3.05;2.60;;;20.20;61.00;;;16.36;82.78;95561.63;4952744;28;20033;-44
2022/08/03 02:12:54;;;;;;;4.85;2.90;;;20.20;61.00;;;16.33;82.65;95567.59;4936796;28;20462;-48
2022/08/03 02:15:23;;;;;;;4.38;2.90;;;20.20;61.10;;;16.31;82.90;95566.31;4952644;28;20015;-44
2022/08/03 02:17:52;;;;;;;3.50;3.20;;;20.20;61.20;;;16.27;83.14;95568.81;4952505;28;20041;-44
2022/08/03 02:20:20;;;;;;;4.10;2.75;;;20.10;61.20;;;16.25;83.60;95568.28;4952552;28;20393;-46
2022/08/03 02:22:46;;;;;;;4.65;2.63;;;20.10;61.40;;;16.27;83.48;95570.69;4951878;28;20366;-46
2022/08/03 02:25:15;;;;;;;3.03;2.60;;;20.10;61.50;;;16.26;83.37;95567.19;4952749;28;20026;-44
2022/08/03 02:27:59;;;;;;;3.85;2.85;;;20.10;61.60;;;16.25;83.43;95565.59;4952304;28;20113;-45
2022/08/03 02:30:38;;;;;;;4.45;3.42;;;20.00;61.80;;;16.22;83.59;95568.09;4953569;28;20030;-46
2022/08/03 02:33:16;;;;;;;3.30;2.75;;;20.00;61.80;;;16.19;84.24;95572.19;4936799;28;20045;-46
2022/08/03 02:35:50;;;;;;;3.67;2.90;;;20.00;61.90;;;16.19;84.57;95561.44;4952290;28;20028;-44
2022/08/03 02:38:26;;;;;;;10.35;3.45;;;20.00;62.10;;;16.17;84.43;95564.44;4953475;28;20026;-45
2022/08/03 02:40:57;;;;;;;4.97;3.05;;;20.00;62.20;;;16.17;84.42;95563.66;4951991;28;20022;-43
2022/08/03 02:43:25;;;;;;;4.00;3.20;;;20.00;62.20;;;16.17;84.53;95555.59;4935673;28;20051;-43
2022/08/03 02:45:58;;;;;;;5.15;3.35;;;20.00;62.20;;;16.18;84.75;95562.53;4936507;28;20125;-46
2022/08/03 02:48:31;;;;;;;4.10;3.10;;;20.00;62.50;;;16.12;85.41;95564.53;4952483;28;20027;-46
2022/08/03 02:51:01;;;;;;;3.20;2.55;;;20.00;62.50;;;16.09;85.52;95562.44;4951328;28;20026;-44
2022/08/03 02:53:30;;;;;;;4.97;3.13;;;20.00;62.60;;;16.15;84.95;95557.75;4952300;28;20544;-44
2022/08/03 02:56:01;;;;;;;5.35;3.30;;;20.00;62.60;;;16.15;84.72;95558.56;4952023;28;20463;-44
2022/08/03 02:58:33;;;;;;;4.63;3.10;;;19.90;62.70;;;16.14;84.63;95556.19;4936327;28;20031;-43
2022/08/03 03:01:01;;;;;;;5.95;3.03;;;19.90;62.70;;;16.11;84.72;95559.47;4936602;28;20026;-45
2022/08/03 03:03:33;;;;;;;4.43;3.30;;;19.90;62.60;;;16.09;84.79;95556.28;4935752;28;20035;-48
2022/08/03 03:06:01;;;;;;;4.25;3.65;;;19.90;62.80;;;16.08;84.85;95560.84;4935892;28;20018;-44
2022/08/03 03:08:31;;;;;;;4.28;3.25;;;19.90;62.80;;;16.07;85.00;95558.47;4953109;28;20030;-47
2022/08/03 03:11:01;;;;;;;4.90;3.50;;;19.90;62.90;;;16.06;85.14;95560.34;4951557;28;20031;-44
2022/08/03 03:13:32;;;;;;;5.25;3.35;;;19.90;63.10;;;16.06;85.24;95564.94;4952662;28;20113;-43
2022/08/03 03:16:04;;;;;;;5.30;3.90;;;19.90;63.10;;;16.05;85.44;95560.66;4951504;28;20033;-44
2022/08/03 03:18:34;;;;;;;7.45;3.90;;;19.90;63.20;;;16.02;85.48;95564.75;4951921;28;20034;-43
2022/08/03 03:21:06;;;;;;;3.90;3.33;;;19.90;63.10;;;16.01;85.72;95565.81;4951301;28;20026;-44
2022/08/03 03:23:38;;;;;;;6.38;3.53;;;19.80;63.30;;;15.95;86.07;95564.31;4951970;28;20393;-44
2022/08/03 03:26:08;;;;;;;8.02;3.50;;;19.80;63.20;;;15.91;86.18;95566.03;4951852;28;20027;-43
2022/08/03 03:28:36;;;;;;;5.25;3.45;;;19.80;63.30;;;15.87;85.99;95575.78;4935288;28;20042;-45
2022/08/03 03:31:06;;;;;;;5.88;3.58;;;19.70;63.20;;;15.84;86.43;95571.00;4951567;28;20030;-44
2022/08/03 03:33:39;;;;;;;4.97;3.47;;;19.70;63.50;;;15.81;86.54;95572.38;4935544;28;20486;-43
2022/08/03 03:36:09;;;;;;;6.85;4.20;;;19.70;63.60;;;15.78;86.70;95574.88;4935701;28;20034;-48
2022/08/03 03:38:35;;;;;;;5.85;4.20;;;19.70;63.70;;;15.76;87.04;95575.16;4951198;28;20470;-45
2022/08/03 03:41:05;;;;;;;7.43;4.18;;;19.60;63.70;;;15.75;86.91;95576.25;4950131;28;20101;-45
2022/08/03 03:43:34;;;;;;;5.13;3.97;;;19.60;64.00;;;15.73;87.08;95579.25;4966331;28;20054;-45
2022/08/03 03:46:00;;;;;;;5.45;3.83;;;19.60;64.10;;;15.73;87.20;95586.50;4951512;28;20204;-43
2022/08/03 03:48:35;;;;;;;4.57;4.05;;;19.60;64.00;;;15.71;87.36;95583.31;4935373;28;20027;-43
2022/08/03 03:51:06;;;;;;;5.05;3.95;;;19.60;64.20;;;15.66;87.80;95584.16;4950321;28;20026;-44
2022/08/03 03:53:32;;;;;;;8.98;3.60;;;19.60;64.30;;;15.67;88.22;95587.72;4950542;28;20102;-44
2022/08/03 03:55:58;;;;;;;6.68;3.92;;;19.50;64.20;;;15.63;88.22;95581.28;4950964;28;20113;-43
2022/08/03 03:58:24;;;;;;;8.60;4.15;;;19.50;64.30;;;15.62;88.40;95577.81;4934805;29;20045;-43
2022/08/03 04:00:56;;;;;;;5.57;3.83;;;19.50;64.40;;;15.62;88.82;95585.06;4951804;28;20494;-44
2022/08/03 04:03:25;;;;;;;5.15;4.00;;;19.50;64.80;;;15.61;89.04;95578.91;4950630;28;20126;-43
2022/08/03 04:11:59;;;;;;;6.65;4.32;;;19.50;64.70;;;15.51;89.85;95579.06;4950159;28;20033;-45
2022/08/03 04:14:33;;;;;;;5.38;4.10;;;19.50;65.00;;;15.60;89.49;95582.66;4941426;28;20049;-44
2022/08/03 04:17:11;;;;;;;6.43;3.97;;;19.50;65.00;;;15.63;89.15;95583.97;4950627;29;20429;-43
2022/08/03 04:19:51;;;;;;;4.40;3.85;;;19.50;65.10;;;15.64;89.04;95582.91;4934406;29;20031;-44
2022/08/03 04:22:31;;;;;;;6.82;4.30;;;19.50;65.20;;;15.64;89.03;95586.38;4951042;28;20034;-45
2022/08/03 04:25:09;;;;;;;7.32;4.15;;;19.50;65.20;;;15.62;88.73;95591.22;4935242;29;20015;-44
2022/08/03 04:27:42;;;;;;;5.38;4.10;;;19.50;65.20;;;15.61;89.36;95586.19;4934488;29;20376;-46
2022/08/03 04:30:14;;;;;;;6.13;4.18;;;19.50;65.30;;;15.61;88.99;95586.97;4952161;28;20077;-48
2022/08/03 04:32:44;;;;;;;5.25;4.18;;;19.50;65.20;;;15.60;89.33;95584.56;4950054;28;20022;-44
2022/08/03 04:35:10;;;;;;;5.57;4.38;;;19.50;65.20;;;15.60;89.22;95584.56;4951759;28;20023;-44
2022/08/03 04:37:46;;;;;;;4.75;4.05;;;19.50;65.10;;;15.59;89.73;95578.41;4966369;28;20042;-46
2022/08/03 04:40:31;;;;;;;6.88;4.55;;;19.50;65.50;;;15.62;89.75;95591.22;4950606;29;20042;-44
2022/08/03 04:45:33;;;;;;;6.07;4.70;;;19.60;65.40;;;15.65;90.08;95593.31;4946987;28;20050;-48
2022/08/03 04:48:00;;;;;;;7.75;4.10;;;19.60;65.60;;;15.79;89.96;95592.56;4950683;29;20034;-49
2022/08/03 04:50:27;;;;;;;6.35;3.97;;;19.60;65.50;;;16.08;89.82;95589.63;4934609;29;20564;-46
2022/08/03 04:52:55;;;;;;;6.00;4.47;;;19.80;65.60;;;16.41;88.77;95596.44;4950222;29;20385;-45
2022/08/03 04:55:29;;;;;;;4.90;4.00;;;19.90;65.50;;;16.77;87.54;95595.72;4915389;29;20047;-49
2022/08/03 04:57:56;;;;;;;5.47;3.95;;;20.10;65.50;;;17.12;85.57;95601.38;4873911;29;20171;-50
2022/08/03 05:00:25;;;;;;;5.90;3.83;;;20.30;65.10;;;17.44;85.02;95603.00;4931634;29;20046;-48
2022/08/03 05:02:55;;;;;;;5.50;4.22;;;20.50;64.80;;;17.68;82.72;95605.38;4918962;29;20047;-46
2022/08/03 05:05:33;;;;;;;5.80;3.50;;;20.70;64.50;;;18.03;82.41;95606.34;4918689;29;20027;-46
2022/08/03 05:07:59;;;;;;;4.32;3.33;;;20.90;64.10;;;18.35;80.84;95611.69;4936188;29;20378;-47
2022/08/03 05:10:30;;;;;;;5.15;3.67;;;21.20;63.70;;;18.59;77.86;95611.28;4935896;29;20046;-46
2022/08/03 05:13:03;;;;;;;5.80;3.90;;;21.40;63.30;;;18.88;78.27;95611.50;4918776;29;20065;-45
2022/08/03 05:15:32;;;;;;;3.95;3.50;;;21.70;63.00;;;19.14;77.09;95616.91;4934848;29;20031;-46
2022/08/03 05:17:57;;;;;;;5.28;3.30;;;21.90;62.50;;;19.40;74.39;95618.81;4934526;29;20035;-46
2022/08/03 05:20:23;;;;;;;3.65;3.30;;;22.20;62.00;;;19.68;74.17;95613.06;4936010;29;20027;-45
2022/08/03 05:22:54;;;;;;;4.75;3.60;;;22.50;61.50;;;19.97;72.71;95615.06;4935624;29;20031;-48
2022/08/03 05:25:26;;;;;;;6.68;3.65;;;22.70;61.00;;;20.19;71.90;95611.31;4935323;29;20058;-48
2022/08/03 05:27:53;;;;;;;3.75;3.40;;;23.00;60.40;;;20.42;70.74;95617.22;4918784;29;20122;-47
2022/08/03 05:30:19;;;;;;;5.15;3.58;;;23.30;59.90;;;20.61;70.39;95616.84;4918654;29;20054;-48
2022/08/03 05:32:45;;;;;;;6.45;3.35;;;23.60;59.50;;;20.83;69.78;95621.94;4935672;29;20446;-47
2022/08/03 05:35:11;;;;;;;4.45;3.47;;;23.90;59.00;;;21.08;68.56;95622.09;4933908;29;20058;-49
2022/08/03 05:37:36;;;;;;;3.63;3.28;;;24.10;58.60;;;21.36;67.22;95623.16;4935331;29;20027;-47
2022/08/03 05:40:07;;;;;;;5.53;3.63;;;24.40;58.70;;;21.61;65.50;95625.97;4934342;29;20134;-47
2022/08/03 05:42:40;;;;;;;5.30;3.80;;;24.70;57.50;;;21.86;63.93;95622.19;4918547;29;20085;-48
2022/08/03 05:45:17;;;;;;;3.85;3.15;;;25.00;57.00;;;22.12;63.78;95632.72;4934718;29;20035;-47
2022/08/03 05:47:52;;;;;;;5.70;3.63;;;25.30;56.40;;;22.45;62.97;95626.47;4935714;29;20391;-46
2022/08/03 05:50:20;;;;;;;4.25;3.47;;;25.70;55.90;;;22.64;61.77;95623.97;4935227;29;20027;-52
2022/08/03 05:52:46;;;;;;;3.97;3.38;;;25.90;55.20;;;22.92;61.02;95627.91;4935049;29;20046;-47
2022/08/03 05:55:13;;;;;;;3.67;3.38;;;26.30;54.70;;;23.14;60.05;95624.72;4934748;29;20082;-49
2022/08/03 05:57:40;;;;;;;4.22;3.40;;;26.60;54.20;;;23.23;59.39;95624.59;4934198;29;20023;-46
2022/08/03 06:00:11;;;;;;;4.95;3.60;;;26.90;53.60;;;23.46;58.94;95624.81;4934160;29;20072;-46
2022/08/03 06:02:37;;;;;;;4.25;3.47;;;27.10;52.80;;;23.63;58.42;95621.81;4934897;29;20399;-46
2022/08/03 06:05:05;;;;;;;3.63;3.10;;;27.40;52.40;;;23.84;57.99;95623.53;4934550;29;20115;-51
2022/08/03 06:07:34;;;;;;;5.15;3.33;;;27.60;51.90;;;23.96;57.67;95626.97;4934161;29;20038;-45
2022/08/03 06:10:02;;;;;;;6.80;3.40;;;27.90;51.40;;;24.15;57.16;95625.50;4933953;29;20030;-48
2022/08/03 06:12:39;;;;;;;5.95;3.67;;;28.10;51.10;;;24.39;56.89;95624.56;4934386;29;20147;-47
2022/08/03 06:15:08;;;;;;;4.03;3.60;;;28.40;50.60;;;24.57;56.23;95625.81;4918027;29;20034;-51
2022/08/03 06:17:45;;;;;;;4.10;3.67;;;28.60;50.20;;;24.79;55.82;95620.81;4933771;29;20027;-48
2022/08/03 06:20:11;;;;;;;7.13;3.88;;;28.90;49.80;;;24.99;56.08;95625.19;4933327;29;20466;-48
2022/08/03 06:22:37;;;;;;;4.18;3.78;;;29.00;49.40;;;25.24;55.61;95616.78;4935018;29;20035;-46
2022/08/03 06:25:04;;;;;;;4.80;3.85;;;29.30;49.10;;;25.54;54.47;95625.97;4933430;29;20086;-46
2022/08/03 06:27:29;;;;;;;5.72;4.10;;;29.50;48.70;;;25.69;53.74;95621.56;4933472;29;20118;-50
2022/08/03 06:29:58;;;;;;;4.15;3.80;;;29.70;48.30;;;25.82;53.58;95628.47;4917274;29;20141;-47
2022/08/03 06:32:27;;;;;;;4.32;3.90;;;29.90;47.80;;;25.83;52.97;95624.59;4934399;29;20061;-52
2022/08/03 06:35:05;;;;;;;4.60;4.20;;;30.10;47.30;;;25.90;52.66;95628.59;4932835;29;20054;-46
2022/08/03 06:37:40;;;;;;;8.75;4.30;;;30.30;46.90;;;26.04;52.70;95623.38;4933473;29;20422;-46
2022/08/03 06:40:07;;;;;;;5.15;3.60;;;30.50;46.60;;;26.39;51.54;95625.16;4917048;29;20118;-49
2022/08/03 06:42:36;;;;;;;4.85;3.63;;;30.70;46.20;;;26.60;50.68;95625.50;4932974;29;20034;-46
2022/08/03 06:45:12;;;;;;;4.43;4.00;;;31.00;45.70;;;26.51;50.81;95627.72;4916881;29;20171;-46
2022/08/03 06:47:39;;;;;;;5.88;3.90;;;31.20;45.90;;;26.64;50.44;95626.38;4934262;29;20031;-50
2022/08/03 06:50:08;;;;;;;4.78;4.10;;;31.40;44.80;;;26.90;49.52;95628.31;4917234;29;20027;-50
2022/08/03 06:52:37;;;;;;;5.60;4.68;;;31.60;44.40;;;27.18;48.53;95627.16;4932926;29;20039;-46
2022/08/03 06:55:05;;;;;;;8.75;3.80;;;31.90;43.90;;;27.46;48.56;95629.47;4933473;29;20050;-49
2022/08/03 06:57:33;;;;;;;4.20;3.50;;;32.10;43.50;;;27.64;46.69;95635.13;4917275;29;20113;-48
2022/08/03 07:00:08;;;;;;;4.43;3.40;;;32.40;42.80;;;27.75;46.02;95632.53;4934377;29;20030;-50
2022/08/03 07:02:34;;;;;;;4.70;4.00;;;32.70;41.90;;;27.97;45.49;95639.06;4934036;29;20081;-46
2022/08/03 07:05:04;;;;;;;3.42;3.05;;;32.80;41.40;;;28.23;44.63;95647.13;4932131;29;20062;-46
2022/08/03 07:07:36;;;;;;;3.63;3.25;;;33.00;40.70;;;28.26;44.07;95646.38;4932812;29;20026;-46
2022/08/03 07:10:07;;;;;;;7.38;3.78;;;33.20;40.40;;;28.49;43.64;95648.19;4932868;29;20038;-49
2022/08/03 07:12:35;;;;;;;3.97;3.58;;;33.30;39.70;;;28.84;43.44;95647.66;4932873;29;20027;-49
2022/08/03 07:15:08;;;;;;;4.90;3.90;;;33.50;39.50;;;29.05;42.44;95644.28;4933496;29;20027;-49
2022/08/03 07:17:35;;;;;;;3.75;3.35;;;33.70;39.00;;;29.18;42.09;95642.81;4933925;29;20437;-48
2022/08/03 07:20:07;;;;;;;3.78;3.40;;;34.00;38.60;;;29.52;40.69;95639.81;4932462;29;20023;-46
2022/08/03 07:22:36;;;;;;;4.15;3.83;;;34.20;38.00;;;29.82;39.68;95641.53;4932712;29;20126;-51
2022/08/03 07:25:03;;;;;;;4.03;3.63;;;34.40;37.40;;;29.87;40.15;95641.19;4915403;29;20042;-47
2022/08/03 07:27:37;;;;;;;3.95;3.60;;;34.70;37.10;;;29.97;40.39;95641.19;4932601;29;20489;-46
2022/08/03 07:30:08;;;;;;;5.32;3.92;;;34.90;36.60;;;30.00;39.63;95644.34;4932432;29;20051;-48
2022/08/03 07:32:34;;;;;;;4.15;3.25;;;35.10;36.10;;;30.04;39.60;95645.13;4933461;29;20035;-47
2022/08/03 07:35:03;;;;;;;3.97;3.40;;;35.20;36.00;;;30.19;39.44;95644.78;4916287;29;20497;-47
2022/08/03 07:37:36;;;;;;;5.07;3.97;;;35.20;35.60;;;30.38;39.20;95651.09;4932278;29;20382;-48
2022/08/03 07:40:08;;;;;;;6.85;3.53;;;35.50;35.30;;;30.57;38.87;95655.44;4932588;29;20390;-47
2022/08/03 07:42:36;;;;;;;6.88;3.97;;;35.70;35.00;;;30.70;39.26;95653.06;4916168;29;20446;-49
2022/08/03 07:45:07;;;;;;;3.78;3.45;;;35.80;34.80;;;30.83;38.33;95648.75;4932669;29;20047;-48
2022/08/03 07:47:35;;;;;;;4.85;3.67;;;36.00;34.50;;;30.93;39.18;95645.22;4933410;29;20031;-46
2022/08/03 07:50:04;;;;;;;3.65;3.35;;;36.10;34.40;;;30.99;38.25;95645.59;4932324;29;20477;-48
2022/08/03 07:52:51;;;;;;;3.75;3.38;;;36.40;34.30;;;30.90;37.76;95640.53;4931775;29;20027;-48
2022/08/03 07:55:27;;;;;;;5.15;3.80;;;36.60;33.80;;;31.24;38.22;95640.03;4915378;29;20034;-47
2022/08/03 07:58:15;;;;;;;4.70;4.30;;;36.80;33.40;;;31.70;37.61;95642.66;4933064;29;20070;-46
2022/08/03 08:00:43;;;;;;;5.20;4.43;;;37.00;33.40;;;31.90;36.24;95642.19;4932923;29;20023;-48
2022/08/03 08:03:21;;;;;;;4.30;3.92;;;37.20;32.80;;;32.11;36.18;95644.84;4930272;29;20498;-47
2022/08/03 08:05:48;;;;;;;4.07;3.78;;;37.50;32.50;;;32.12;35.76;95634.59;4915940;29;20019;-49
2022/08/03 08:08:20;;;;;;;5.10;4.25;;;37.60;32.00;;;32.24;35.95;95645.13;4933141;29;20034;-48
2022/08/03 08:10:47;;;;;;;6.20;4.18;;;37.90;31.70;;;32.29;35.47;95638.44;4900339;29;20111;-50
2022/08/03 08:13:13;;;;;;;4.47;4.07;;;38.10;31.40;;;32.47;34.79;95639.91;4915423;29;20039;-48
2022/08/03 08:15:42;;;;;;;4.15;3.85;;;38.30;31.00;;;32.44;34.85;95634.41;4931537;29;20031;-53
2022/08/03 08:18:08;;;;;;;4.60;4.30;;;38.60;30.40;;;32.38;34.89;95624.97;4932702;29;20027;-50
2022/08/03 08:20:37;;;;;;;4.70;4.40;;;38.70;30.10;;;32.64;35.12;95632.66;4933102;29;20027;-49
2022/08/03 08:23:08;;;;;;;4.10;3.65;;;38.80;30.00;;;32.97;34.19;95635.97;4931359;29;20565;-52
2022/08/03 08:25:40;;;;;;;4.28;3.88;;;39.00;29.70;;;33.20;33.34;95629.81;4931899;29;20062;-50
2022/08/03 08:28:08;;;;;;;4.80;4.20;;;39.10;29.50;;;33.34;33.27;95637.91;4931706;29;20034;-50
2022/08/03 08:30:34;;;;;;;3.97;3.67;;;39.30;29.30;;;33.42;33.53;95638.63;4931517;29;20023;-51
2022/08/03 08:33:06;;;;;;;4.63;4.03;;;39.50;29.20;;;33.46;33.48;95635.81;4931075;29;20031;-48
2022/08/03 08:35:35;;;;;;;4.93;3.70;;;39.70;29.00;;;33.29;33.84;95640.34;4933656;29;20023;-48
2022/08/03 08:38:04;;;;;;;4.30;3.90;;;39.80;28.80;;;33.63;32.71;95630.13;4933541;29;20023;-49
2022/08/03 08:40:30;;;;;;;4.28;3.85;;;39.90;28.60;;;33.87;32.81;95638.47;4934887;29;20062;-50
2022/08/03 08:43:02;;;;;;;4.72;4.25;;;40.10;28.40;;;34.34;32.66;95643.38;4934981;29;20283;-48
2022/08/03 08:45:32;;;;;;;4.07;3.78;;;40.20;28.40;;;34.45;32.18;95633.72;4935438;29;20129;-48
2022/08/03 08:48:06;;;;;;;4.15;3.85;;;40.40;28.30;;;34.75;31.79;95632.84;4921267;29;20482;-50
2022/08/03 08:50:34;;;;;;;4.20;3.85;;;40.60;28.10;;;34.89;31.88;95631.84;4934887;29;20031;-49
2022/08/03 08:53:05;;;;;;;4.70;4.18;;;40.90;28.00;;;34.97;31.76;95624.97;4934079;29;20042;-52
2022/08/03 08:55:34;;;;;;;4.35;4.05;;;41.00;27.80;;;34.79;31.44;95635.59;4934469;29;20498;-48
2022/08/03 08:58:09;;;;;;;4.32;3.53;;;41.00;27.60;;;34.67;32.27;95625.13;4933755;29;20035;-47
2022/08/03 09:00:48;;;;;;;5.07;4.40;;;41.10;28.00;;;34.75;31.67;95634.84;4934727;29;20027;-51
2022/08/03 09:03:17;;;;;;;3.90;3.60;;;41.10;27.50;;;34.73;31.13;95626.22;4934396;29;20500;-49
2022/08/03 09:05:53;;;;;;;4.82;4.22;;;41.30;27.20;;;34.87;30.57;95634.25;4934257;29;20030;-50
2022/08/03 09:08:20;;;;;;;5.85;4.00;;;41.30;26.90;;;34.83;31.19;95625.25;4917857;29;20385;-50
2022/08/03 09:10:49;;;;;;;4.93;4.28;;;41.40;26.90;;;35.10;31.05;95629.91;4934266;29;20031;-50
2022/08/03 09:13:28;;;;;;;4.70;4.30;;;41.50;26.80;;;34.86;31.20;95632.69;4934467;29;20022;-50
2022/08/03 09:16:18;;;;;;;4.70;4.28;;;41.50;26.70;;;35.34;31.27;95630.66;4934932;29;20042;-53
2022/08/03 09:18:53;;;;;;;4.85;4.45;;;41.60;26.80;;;35.52;30.56;95630.31;4929887;29;20146;-49
2022/08/03 09:21:29;;;;;;;4.65;4.03;;;41.70;26.70;;;35.53;30.06;95632.69;4930513;29;20015;-51
2022/08/03 09:23:59;;;;;;;4.63;4.22;;;41.70;26.50;;;35.80;30.41;95634.53;4918686;29;20105;-53
2022/08/03 09:26:29;;;;;;;4.90;4.20;;;41.80;26.50;;;36.09;29.98;95631.94;4917605;29;20031;-51
2022/08/03 09:29:09;;;;;;;4.55;4.20;;;42.00;26.50;;;36.07;30.15;95632.38;4927923;29;20039;-52
2022/08/03 09:31:44;;;;;;;4.63;4.22;;;42.10;26.40;;;36.10;29.43;95634.28;4923330;29;20027;-53
2022/08/03 09:34:17;;;;;;;4.75;4.35;;;42.20;26.10;;;35.99;29.56;95632.94;4908359;29;20031;-50
2022/08/03 09:36:52;;;;;;;4.38;4.07;;;42.30;26.00;;;36.09;29.42;95631.94;4932676;29;20042;-53
2022/08/03 09:39:24;;;;;;;4.93;4.47;;;42.30;26.00;;;36.29;28.55;95626.31;4901815;29;20057;-48
2022/08/03 09:42:17;;;;;;;4.90;3.88;;;42.40;25.70;;;36.55;28.65;95633.66;4932836;29;20418;-53
2022/08/03 09:45:09;;;;;;;4.65;4.25;;;42.50;25.70;;;36.40;28.50;95626.84;4926743;29;20454;-52
2022/08/03 09:47:38;;;;;;;4.32;3.90;;;42.70;25.50;;;36.75;28.27;95625.22;4917430;29;20041;-50
2022/08/03 09:50:08;;;;;;;4.68;4.28;;;42.70;25.40;;;36.89;27.65;95624.09;4924299;29;20122;-52
2022/08/03 09:52:40;;;;;;;4.25;3.95;;;42.80;25.20;;;36.83;28.16;95617.53;4926394;29;20031;-49
2022/08/03 09:55:12;;;;;;;;;;;42.90;25.20;;;36.95;27.88;95629.88;4934113;29;20031;-50
2022/08/03 09:57:45;;;;;;;5.53;4.22;;;43.00;25.50;;;36.89;27.81;95626.06;4919113;29;19913;-51
2022/08/03 10:00:16;;;;;;;4.32;3.90;;;43.10;25.20;;;37.14;27.69;95622.69;4924249;29;20125;-51
2022/08/03 10:03:04;;;;;;;4.40;4.03;;;43.10;24.90;;;37.43;26.95;95620.69;4933670;29;20035;-51
2022/08/03 10:05:33;;;;;;;4.75;4.25;;;43.20;25.00;;;37.60;27.23;95618.66;4934654;29;20069;-51
2022/08/03 10:07:59;;;;;;;4.30;3.90;;;43.50;24.70;;;37.48;27.68;95617.41;4918022;29;20051;-52
2022/08/03 10:10:44;;;;;;;5.30;3.85;;;43.60;24.80;;;37.00;27.99;95602.41;4918095;29;20066;-52
2022/08/03 10:13:17;;;;;;;4.20;3.90;;;43.70;24.60;;;37.20;27.28;95621.72;4934521;29;20089;-51
2022/08/03 10:15:45;;;;;;;4.57;3.83;;;43.70;24.30;;;37.63;26.59;95614.22;4935096;29;20102;-50
2022/08/03 10:18:14;;;;;;;3.97;3.67;;;43.70;24.70;;;38.01;26.33;95617.06;4935137;29;20569;-49
2022/08/03 10:21:02;;;;;;;4.32;4.03;;;43.80;24.20;;;37.85;26.61;95614.38;4935131;29;20023;-49
2022/08/03 10:23:34;;;;;;;4.05;3.75;;;44.00;24.20;;;37.66;26.24;95610.56;4933276;29;20031;-48
2022/08/03 10:26:06;;;;;;;5.20;4.47;;;44.00;23.90;;;37.50;26.88;95603.84;4933865;29;20031;-54
2022/08/03 10:28:40;;;;;;;4.53;4.22;;;44.00;23.90;;;37.45;27.16;95603.56;4933911;29;20063;-51
2022/08/03 10:31:10;;;;;;;4.47;4.18;;;44.10;24.00;;;37.37;27.29;95600.22;4933575;29;20030;-49
2022/08/03 10:33:46;;;;;;;5.00;4.60;;;44.10;23.90;;;37.60;26.13;95601.97;4914134;29;20035;-51
2022/08/03 10:36:15;;;;;;;4.55;4.25;;;44.10;23.70;;;37.83;26.56;95602.91;4914355;29;20034;-51
2022/08/03 10:38:51;;;;;;;4.63;4.22;;;44.20;23.70;;;38.04;26.44;95605.06;4908083;29;20519;-52
2022/08/03 10:41:24;;;;;;;4.45;4.05;;;44.40;24.20;;;38.28;25.22;95594.41;4930369;29;20023;-49
2022/08/03 10:44:17;;;;;;;5.13;4.68;;;44.50;23.50;;;38.19;24.91;95594.28;4931937;29;20065;-53
2022/08/03 10:46:47;;;;;;;4.82;4.50;;;44.50;23.30;;;38.23;25.05;95602.50;4910015;29;20035;-56
2022/08/03 10:49:24;;;;;;;5.07;4.28;;;44.60;23.20;;;38.37;24.46;95588.16;4931842;29;20027;-52
2022/08/03 10:51:51;;;;;;;4.88;4.47;;;44.90;23.10;;;38.50;24.63;95590.97;4911582;29;20027;-52